createdAt,value
2022-08-16T00:01:15.796Z,4.23
2022-08-16T00:03:43.206Z,4.80
2022-08-16T00:06:10.658Z,4.83
2022-08-16T00:08:39.691Z,4.70
2022-08-16T00:11:08.007Z,5.00
2022-08-16T00:13:43.191Z,4.80
2022-08-16T00:17:06.163Z,5.80
2022-08-16T00:19:08.231Z,5.33
2022-08-16T00:21:36.047Z,5.10
2022-08-16T00:24:06.503Z,5.17
2022-08-16T00:26:44.539Z,5.50
2022-08-16T00:29:15.727Z,5.53
2022-08-16T00:31:58.623Z,5.30
2022-08-16T00:34:44.139Z,5.40
2022-08-16T00:37:16.916Z,5.20
2022-08-16T00:39:47.101Z,5.30
2022-08-16T00:42:29.816Z,5.57
2022-08-16T00:45:01.411Z,5.07
2022-08-16T00:47:36.963Z,5.37
2022-08-16T00:50:05.339Z,5.20
2022-08-16T00:52:39.093Z,5.17
2022-08-16T00:55:19.092Z,5.33
2022-08-16T00:57:58.581Z,6.10
2022-08-16T01:00:29.273Z,5.50
2022-08-16T01:02:57.975Z,5.73
2022-08-16T01:05:26.305Z,5.60
2022-08-16T01:07:54.340Z,5.90
2022-08-16T01:10:31.536Z,5.30
2022-08-16T01:13:01.373Z,5.67
2022-08-16T01:15:32.906Z,5.53
2022-08-16T01:18:01.193Z,5.43
2022-08-16T01:20:32.877Z,5.57
2022-08-16T01:23:04.741Z,5.47
2022-08-16T01:25:39.837Z,5.60
2022-08-16T01:28:08.744Z,5.60
2022-08-16T01:30:40.140Z,5.53
2022-08-16T01:33:19.178Z,5.63
2022-08-16T01:35:52.847Z,6.30
2022-08-16T01:38:25.558Z,5.70
2022-08-16T01:40:56.006Z,5.93
2022-08-16T01:43:24.912Z,6.20
2022-08-16T01:45:57.816Z,6.73
2022-08-16T01:48:27.779Z,6.77
2022-08-16T01:51:15.579Z,6.20
2022-08-16T01:53:43.973Z,6.23
2022-08-16T01:56:27.129Z,6.00
2022-08-16T01:58:57.414Z,6.67
2022-08-16T02:01:28.459Z,6.60
2022-08-16T02:03:58.390Z,6.77
2022-08-16T02:06:34.335Z,6.50
2022-08-16T02:09:06.230Z,5.70
2022-08-16T02:11:47.730Z,7.00
2022-08-16T02:14:22.373Z,6.90
2022-08-16T02:16:54.709Z,7.10
2022-08-16T02:19:23.806Z,6.57
2022-08-16T02:22:09.292Z,6.40
2022-08-16T02:24:42.262Z,6.03
2022-08-16T02:27:15.421Z,6.47
2022-08-16T02:29:43.676Z,6.53
2022-08-16T02:32:49.115Z,5.97
2022-08-16T02:35:01.848Z,6.60
2022-08-16T02:37:52.139Z,5.90
2022-08-16T02:40:18.255Z,5.93
2022-08-16T02:42:48.162Z,6.27
2022-08-16T02:45:17.939Z,6.07
2022-08-16T02:48:00.704Z,5.40
2022-08-16T02:50:54.329Z,5.40
2022-08-16T02:53:23.587Z,5.93
2022-08-16T02:55:52.290Z,5.77
2022-08-16T02:58:24.953Z,5.03
2022-08-16T03:00:53.240Z,5.87
2022-08-16T03:03:24.878Z,5.93
2022-08-16T03:05:53.279Z,5.87
2022-08-16T03:08:50.921Z,6.30
2022-08-16T03:11:17.953Z,5.40
2022-08-16T03:13:53.155Z,5.83
2022-08-16T03:16:38.374Z,5.87
2022-08-16T03:19:11.434Z,5.53
2022-08-16T03:21:39.663Z,5.40
2022-08-16T03:24:27.721Z,5.37
2022-08-16T03:26:59.192Z,5.23
2022-08-16T03:29:30.403Z,5.57
2022-08-16T03:31:59.644Z,5.03
2022-08-16T03:34:30.136Z,5.13
2022-08-16T03:36:58.291Z,5.43
2022-08-16T03:39:26.028Z,4.80
2022-08-16T03:42:00.034Z,4.90
2022-08-16T03:44:44.096Z,5.23
2022-08-16T03:47:18.654Z,4.57
2022-08-16T03:49:51.634Z,4.50
2022-08-16T03:52:20.430Z,4.47
2022-08-16T03:54:58.287Z,4.60
2022-08-16T03:57:32.095Z,4.73
2022-08-16T04:00:35.144Z,4.67
2022-08-16T04:03:07.321Z,4.63
2022-08-16T04:05:39.578Z,4.50
2022-08-16T04:08:22.323Z,4.53
2022-08-16T04:10:53.814Z,4.23
2022-08-16T04:14:01.402Z,4.07
2022-08-16T04:16:27.103Z,4.37
2022-08-16T04:19:01.407Z,4.30
2022-08-16T04:21:30.946Z,3.80
2022-08-16T04:24:01.847Z,4.07
2022-08-16T04:26:32.306Z,3.87
2022-08-16T04:29:14.970Z,3.60
2022-08-16T04:31:56.590Z,3.87
2022-08-16T04:34:31.097Z,3.90
2022-08-16T04:37:01.053Z,3.63
2022-08-16T04:39:45.913Z,3.73
2022-08-16T04:42:17.525Z,3.43
2022-08-16T04:44:54.221Z,3.47
2022-08-16T04:47:32.958Z,3.70
2022-08-16T04:50:04.595Z,4.10
2022-08-16T04:52:35.796Z,3.80
2022-08-16T04:55:06.392Z,3.70
2022-08-16T04:57:35.550Z,3.67
2022-08-16T05:00:30.889Z,3.80
2022-08-16T05:02:58.658Z,3.50
2022-08-16T05:05:32.997Z,3.30
2022-08-16T05:08:28.838Z,3.27
2022-08-16T05:11:01.440Z,3.60
2022-08-16T05:13:41.254Z,3.80
2022-08-16T05:16:20.048Z,3.33
2022-08-16T05:18:56.862Z,3.20
2022-08-16T05:21:28.382Z,3.33
2022-08-16T05:24:07.126Z,3.10
2022-08-16T05:26:37.426Z,3.20
2022-08-16T05:29:10.797Z,3.23
2022-08-16T05:31:44.227Z,3.50
2022-08-16T05:34:21.355Z,3.10
2022-08-16T05:36:57.211Z,3.50
2022-08-16T05:39:29.245Z,3.50
2022-08-16T05:42:01.167Z,3.60
2022-08-16T05:44:29.139Z,3.00
2022-08-16T05:47:00.146Z,3.37
2022-08-16T05:49:38.219Z,3.27
2022-08-16T05:52:11.668Z,3.23
2022-08-16T05:54:47.144Z,3.30
2022-08-16T05:57:17.392Z,3.20
2022-08-16T05:59:47.276Z,3.10
2022-08-16T06:02:18.882Z,2.90
2022-08-16T06:04:48.500Z,2.73
2022-08-16T06:07:26.317Z,3.43
2022-08-16T06:10:00.194Z,3.30
2022-08-16T06:12:31.282Z,3.20
2022-08-16T06:15:09.670Z,2.97
2022-08-16T06:17:42.660Z,3.40
2022-08-16T06:20:18.486Z,3.17
2022-08-16T06:22:58.795Z,3.00
2022-08-16T06:25:39.522Z,2.80
2022-08-16T06:28:09.627Z,3.17
2022-08-16T06:30:43.870Z,3.10
2022-08-16T06:33:13.546Z,3.00
2022-08-16T06:35:54.972Z,3.60
2022-08-16T06:38:34.090Z,3.10
2022-08-16T06:41:13.503Z,3.20
2022-08-16T06:43:42.703Z,3.27
2022-08-16T06:46:22.988Z,2.80
2022-08-16T06:49:00.373Z,2.90
2022-08-16T06:51:46.655Z,2.90
2022-08-16T06:54:18.589Z,3.10
2022-08-16T06:56:46.074Z,3.10
2022-08-16T06:59:15.355Z,3.30
2022-08-16T07:01:54.298Z,2.90
2022-08-16T07:04:31.612Z,2.97
2022-08-16T07:07:01.691Z,2.90
2022-08-16T07:09:29.589Z,3.10
2022-08-16T07:12:05.346Z,3.20
2022-08-16T07:14:35.475Z,3.17
2022-08-16T07:17:08.121Z,3.23
2022-08-16T07:20:03.404Z,3.70
2022-08-16T07:22:37.694Z,3.00
2022-08-16T07:25:13.352Z,3.60
2022-08-16T07:27:41.633Z,3.83
2022-08-16T07:30:39.545Z,3.23
2022-08-16T07:33:07.153Z,3.00
2022-08-16T07:35:36.907Z,3.27
2022-08-16T07:38:12.979Z,3.60
2022-08-16T07:41:01.360Z,2.93
2022-08-16T07:43:31.564Z,3.27
2022-08-16T07:46:02.099Z,3.50
2022-08-16T07:48:33.649Z,2.80
2022-08-16T07:51:06.496Z,3.40
2022-08-16T07:53:43.448Z,3.40
2022-08-16T07:56:12.738Z,3.20
2022-08-16T07:58:42.328Z,3.23
2022-08-16T08:01:16.586Z,3.10
2022-08-16T08:03:51.907Z,2.97
2022-08-16T08:06:25.109Z,3.10
2022-08-16T08:08:57.352Z,2.80
2022-08-16T08:11:28.126Z,3.87
2022-08-16T08:13:57.554Z,2.93
2022-08-16T08:16:31.185Z,3.10
2022-08-16T08:19:02.219Z,3.33
2022-08-16T08:21:59.392Z,2.97
2022-08-16T08:24:21.307Z,2.93
2022-08-16T08:26:50.247Z,3.10
2022-08-16T08:29:22.833Z,3.57
2022-08-16T08:31:53.023Z,3.20
2022-08-16T08:34:22.435Z,3.10
2022-08-16T08:36:54.081Z,3.20
2022-08-16T08:39:38.360Z,2.90
2022-08-16T08:42:25.035Z,2.60
2022-08-16T08:44:53.193Z,3.20
2022-08-16T08:47:23.408Z,3.10
2022-08-16T08:49:55.507Z,3.60
2022-08-16T08:52:34.683Z,2.90
2022-08-16T08:55:09.480Z,2.40
2022-08-16T08:57:39.181Z,2.47
2022-08-16T09:00:30.406Z,2.77
2022-08-16T09:03:00.547Z,2.70
2022-08-16T09:05:35.791Z,2.70
2022-08-16T09:08:07.315Z,2.90
2022-08-16T09:11:07.477Z,3.07
2022-08-16T09:13:37.223Z,2.90
2022-08-16T09:17:01.383Z,2.90
2022-08-16T09:19:04.267Z,2.87
2022-08-16T09:21:33.173Z,2.77
2022-08-16T09:24:04.105Z,2.63
2022-08-16T09:26:45.507Z,3.17
2022-08-16T09:29:23.804Z,2.97
2022-08-16T09:32:01.795Z,3.23
2022-08-16T09:34:29.495Z,3.10
2022-08-16T09:36:58.110Z,3.00
2022-08-16T09:39:42.194Z,3.00
2022-08-16T09:42:11.580Z,2.40
2022-08-16T09:45:11.027Z,2.77
2022-08-16T09:47:29.340Z,2.60
2022-08-16T09:50:22.651Z,2.83
2022-08-16T09:52:50.796Z,2.60
2022-08-16T09:55:18.312Z,2.70
2022-08-16T09:57:53.007Z,2.80
2022-08-16T10:00:42.535Z,2.40
2022-08-16T10:03:09.161Z,2.40
2022-08-16T10:05:37.902Z,5.60
2022-08-16T10:08:26.226Z,4.90
2022-08-16T10:11:10.581Z,2.77
2022-08-16T10:13:39.547Z,2.80
2022-08-16T10:19:01.417Z,2.57
2022-08-16T10:21:25.772Z,2.20
2022-08-16T10:23:56.824Z,2.00
2022-08-16T10:27:00.534Z,1.80
2022-08-16T10:29:19.896Z,2.40
2022-08-16T10:31:53.593Z,2.43
2022-08-16T10:34:31.636Z,2.30
2022-08-16T10:37:00.442Z,2.30
2022-08-16T10:39:41.427Z,2.30
2022-08-16T10:42:09.699Z,2.23
2022-08-16T10:44:38.549Z,2.47
2022-08-16T10:47:06.638Z,2.47
2022-08-16T10:49:34.403Z,2.60
2022-08-16T10:52:19.182Z,2.30
2022-08-16T10:57:35.159Z,2.13
2022-08-16T11:00:21.042Z,2.23
2022-08-16T11:02:59.321Z,2.33
2022-08-16T11:05:59.172Z,2.00
2022-08-16T11:08:17.998Z,2.13
2022-08-16T11:11:05.360Z,2.27
2022-08-16T11:16:26.642Z,2.23
2022-08-16T11:19:05.853Z,2.60
2022-08-16T11:22:39.169Z,2.07
2022-08-16T11:24:42.820Z,2.20
2022-08-16T11:27:23.346Z,1.83
2022-08-16T11:29:53.403Z,1.83
2022-08-16T11:32:31.025Z,2.20
2022-08-16T11:35:14.240Z,2.20
2022-08-16T11:40:33.562Z,2.00
2022-08-16T11:43:04.624Z,1.90
2022-08-16T11:45:33.482Z,2.20
2022-08-16T11:48:03.452Z,2.00
2022-08-16T11:50:33.344Z,2.07
2022-08-16T11:53:02.411Z,2.40
2022-08-16T11:55:31.446Z,2.10
2022-08-16T11:58:00.104Z,2.57
2022-08-16T12:00:43.514Z,2.10
2022-08-16T12:03:17.786Z,2.07
2022-08-16T12:05:46.450Z,2.23
2022-08-16T12:08:19.859Z,2.20
2022-08-16T12:10:53.643Z,2.60
2022-08-16T12:13:21.344Z,1.97
2022-08-16T12:15:49.122Z,2.47
2022-08-16T12:18:20.617Z,2.27
2022-08-16T12:20:49.173Z,2.20
2022-08-16T12:23:17.348Z,2.30
2022-08-16T12:25:44.850Z,2.27
2022-08-16T12:28:12.741Z,2.30
2022-08-16T12:30:42.625Z,2.50
2022-08-16T12:33:11.689Z,2.33
2022-08-16T12:35:41.779Z,2.30
2022-08-16T12:38:41.601Z,2.40
2022-08-16T12:40:58.162Z,2.27
2022-08-16T12:43:26.117Z,2.33
2022-08-16T12:45:59.481Z,2.50
2022-08-16T12:48:52.622Z,1.83
2022-08-16T12:51:24.443Z,2.20
2022-08-16T12:53:52.757Z,2.23
2022-08-16T12:56:20.778Z,2.90
2022-08-16T12:58:51.366Z,2.33
2022-08-16T13:01:19.566Z,2.20
2022-08-16T13:03:59.116Z,2.20
2022-08-16T13:06:37.885Z,2.40
2022-08-16T13:09:20.113Z,2.60
2022-08-16T13:11:57.188Z,2.43
2022-08-16T13:14:31.317Z,2.40
2022-08-16T13:17:01.271Z,2.40
2022-08-16T13:19:44.227Z,2.03
2022-08-16T13:22:19.505Z,2.03
2022-08-16T13:24:47.422Z,2.47
2022-08-16T13:27:15.406Z,2.40
2022-08-16T13:29:43.786Z,2.60
2022-08-16T13:32:39.963Z,2.20
2022-08-16T13:34:59.083Z,2.37
2022-08-16T13:37:30.079Z,2.27
2022-08-16T13:39:57.713Z,2.40
2022-08-16T13:42:26.468Z,2.10
2022-08-16T13:44:58.199Z,2.50
2022-08-16T13:47:30.186Z,2.20
2022-08-16T13:49:57.898Z,2.57
2022-08-16T13:52:25.663Z,2.43
2022-08-16T13:55:02.978Z,2.63
2022-08-16T13:57:52.963Z,2.17
2022-08-16T14:00:20.850Z,2.40
2022-08-16T14:02:48.932Z,2.47
2022-08-16T14:05:21.912Z,2.70
2022-08-16T14:07:52.684Z,2.27
2022-08-16T14:10:21.780Z,2.70
2022-08-16T14:12:49.191Z,2.20
2022-08-16T14:15:17.443Z,2.13
2022-08-16T14:18:16.002Z,2.47
2022-08-16T14:20:32.495Z,2.33
2022-08-16T14:22:59.910Z,2.50
2022-08-16T14:25:29.164Z,2.20
2022-08-16T14:27:57.003Z,2.40
2022-08-16T14:30:24.819Z,2.60
2022-08-16T14:32:52.924Z,2.47
2022-08-16T14:35:21.472Z,2.60
2022-08-16T14:37:57.382Z,2.30
2022-08-16T14:40:24.905Z,2.57
2022-08-16T14:42:58.368Z,2.60
2022-08-16T14:45:34.343Z,2.33
2022-08-16T14:48:01.904Z,2.47
2022-08-16T14:50:29.381Z,2.27
2022-08-16T14:52:57.935Z,2.27
2022-08-16T14:55:26.080Z,2.23
2022-08-16T14:57:54.481Z,2.23
2022-08-16T15:00:32.764Z,2.17
2022-08-16T15:03:02.211Z,2.23
2022-08-16T15:07:58.513Z,2.37
2022-08-16T15:10:29.279Z,2.20
2022-08-16T15:13:00.870Z,2.00
2022-08-16T15:15:30.409Z,2.30
2022-08-16T15:18:01.698Z,2.10
2022-08-16T15:20:30.801Z,2.33
2022-08-16T15:22:59.312Z,2.50
2022-08-16T15:25:29.383Z,2.47
2022-08-16T15:27:58.227Z,2.33
2022-08-16T15:30:57.523Z,2.07
2022-08-16T15:33:16.641Z,2.13
2022-08-16T15:35:44.773Z,2.23
2022-08-16T15:38:57.353Z,2.47
2022-08-16T15:40:59.872Z,2.20
2022-08-16T15:43:39.275Z,2.40
2022-08-16T15:46:35.056Z,2.23
2022-08-16T15:49:15.908Z,2.23
2022-08-16T15:51:45.355Z,2.60
2022-08-16T15:54:21.509Z,2.37
2022-08-16T15:57:02.713Z,2.40
2022-08-16T15:59:48.203Z,2.67
2022-08-16T16:02:27.396Z,2.60
2022-08-16T16:05:01.062Z,2.40
2022-08-16T16:07:30.048Z,2.23
2022-08-16T16:09:58.943Z,2.40
2022-08-16T16:12:52.964Z,1.97
2022-08-16T16:15:16.199Z,2.20
2022-08-16T16:17:43.921Z,2.23
2022-08-16T16:20:15.786Z,2.30
2022-08-16T16:22:43.567Z,2.33
2022-08-16T16:25:11.366Z,2.50
2022-08-16T16:27:38.924Z,2.10
2022-08-16T16:30:11.345Z,2.43
2022-08-16T16:32:58.137Z,2.40
2022-08-16T16:35:27.694Z,2.57
2022-08-16T16:38:00.211Z,2.27
2022-08-16T16:40:32.361Z,2.30
2022-08-16T16:43:01.071Z,2.20
2022-08-16T16:45:34.676Z,2.30
2022-08-16T16:48:12.015Z,2.60
2022-08-16T16:50:44.581Z,2.13
2022-08-16T16:53:16.806Z,2.50
2022-08-16T16:55:51.775Z,2.37
2022-08-16T16:58:37.536Z,2.00
2022-08-16T17:01:05.222Z,2.50
2022-08-16T17:03:33.493Z,2.47
2022-08-16T17:06:08.792Z,2.20
2022-08-16T17:08:37.740Z,2.47
2022-08-16T17:11:08.389Z,2.33
2022-08-16T17:13:36.595Z,2.30
2022-08-16T17:16:04.358Z,2.20
2022-08-16T17:19:15.765Z,2.40
2022-08-16T17:21:21.716Z,2.17
2022-08-16T17:23:58.463Z,2.37
2022-08-16T17:26:28.900Z,2.20
2022-08-16T17:29:02.462Z,2.10
2022-08-16T17:31:40.829Z,2.37
2022-08-16T17:34:28.870Z,2.13
2022-08-16T17:37:00.610Z,2.60
2022-08-16T17:39:32.623Z,2.13
2022-08-16T17:42:01.354Z,2.30
2022-08-16T17:44:29.048Z,2.47
2022-08-16T17:46:56.590Z,2.50
2022-08-16T17:49:23.970Z,2.40
2022-08-16T17:51:51.436Z,2.47
2022-08-16T17:54:30.126Z,2.40
2022-08-16T17:56:58.549Z,2.50
2022-08-16T17:59:28.552Z,2.60
2022-08-16T18:01:56.896Z,2.70
2022-08-16T18:04:48.315Z,2.77
2022-08-16T18:07:11.916Z,2.40
2022-08-16T18:09:42.080Z,2.63
2022-08-16T18:12:44.171Z,2.50
2022-08-16T18:15:02.903Z,2.67
2022-08-16T18:17:30.284Z,2.77
2022-08-16T18:19:57.678Z,2.73
2022-08-16T18:22:30.205Z,2.80
2022-08-16T18:24:59.374Z,2.70
2022-08-16T18:27:28.366Z,2.60
2022-08-16T18:29:56.086Z,2.50
2022-08-16T18:32:24.715Z,2.50
2022-08-16T18:34:54.190Z,2.80
2022-08-16T18:37:22.243Z,2.87
2022-08-16T18:39:49.707Z,2.77
2022-08-16T18:42:18.623Z,3.10
2022-08-16T18:44:46.023Z,2.87
2022-08-16T18:47:13.433Z,3.10
2022-08-16T18:49:40.860Z,2.87
2022-08-16T18:52:08.313Z,3.07
2022-08-16T18:55:01.477Z,2.90
2022-08-16T18:57:24.427Z,3.10
2022-08-16T18:59:51.810Z,3.27
2022-08-16T19:02:56.034Z,3.30
2022-08-16T19:05:12.757Z,3.60
2022-08-16T19:07:40.216Z,3.10
2022-08-16T19:10:08.907Z,3.23
2022-08-16T19:12:42.137Z,3.30
2022-08-16T19:15:11.964Z,2.97
2022-08-16T19:17:39.627Z,2.97
2022-08-16T19:20:10.769Z,2.83
2022-08-16T19:23:02.397Z,2.70
2022-08-16T19:25:46.373Z,2.90
2022-08-16T19:28:49.225Z,3.40
2022-08-16T19:31:04.884Z,3.13
2022-08-16T19:33:32.652Z,3.07
2022-08-16T19:36:00.451Z,3.13
2022-08-16T19:38:27.912Z,3.13
2022-08-16T19:40:55.337Z,3.17
2022-08-16T19:43:24.042Z,3.47
2022-08-16T19:45:52.674Z,3.20
2022-08-16T19:48:20.334Z,3.63
2022-08-16T19:50:47.732Z,3.53
2022-08-16T19:53:19.328Z,3.57
2022-08-16T19:55:47.709Z,3.43
2022-08-16T19:58:16.830Z,3.40
2022-08-16T20:00:47.038Z,3.63
2022-08-16T20:03:18.454Z,3.70
2022-08-16T20:05:46.009Z,3.70
2022-08-16T20:08:13.792Z,3.50
2022-08-16T20:10:42.215Z,3.20
2022-08-16T20:13:14.097Z,3.37
2022-08-16T20:15:42.482Z,3.60
2022-08-16T20:18:17.155Z,3.37
2022-08-16T20:20:52.581Z,3.70
2022-08-16T20:23:24.573Z,3.80
2022-08-16T20:25:53.350Z,3.47
2022-08-16T20:28:39.736Z,3.17
2022-08-16T20:31:08.144Z,3.80
2022-08-16T20:33:36.943Z,3.80
2022-08-16T20:36:04.676Z,3.80
2022-08-16T20:38:32.108Z,4.17
2022-08-16T20:40:59.481Z,3.63
2022-08-16T20:43:26.878Z,3.57
2022-08-16T20:45:54.311Z,3.70
2022-08-16T20:48:21.707Z,3.73
2022-08-16T20:50:50.660Z,3.70
2022-08-16T20:53:18.075Z,3.87
2022-08-16T20:55:45.546Z,3.63
2022-08-16T20:58:12.926Z,3.80
2022-08-16T21:00:40.550Z,3.57
2022-08-16T21:03:08.363Z,3.67
2022-08-16T21:05:35.825Z,3.87
2022-08-16T21:08:50.040Z,3.47
2022-08-16T21:10:52.495Z,3.50
2022-08-16T21:13:20.779Z,3.60
2022-08-16T21:15:48.923Z,3.50
2022-08-16T21:18:16.331Z,3.93
2022-08-16T21:20:44.045Z,4.03
2022-08-16T21:23:12.791Z,4.00
2022-08-16T21:25:58.241Z,3.67
2022-08-16T21:28:40.690Z,3.80
2022-08-16T21:31:10.071Z,3.63
2022-08-16T21:33:37.582Z,3.90
2022-08-16T21:36:05.315Z,4.13
2022-08-16T21:38:34.024Z,3.70
2022-08-16T21:41:01.491Z,3.47
2022-08-16T21:43:32.024Z,3.80
2022-08-16T21:45:59.836Z,3.60
2022-08-16T21:48:34.519Z,3.77
2022-08-16T21:51:03.125Z,3.73
2022-08-16T21:53:30.555Z,4.10
2022-08-16T21:55:59.716Z,3.83
2022-08-16T21:58:27.100Z,4.13
2022-08-16T22:00:54.559Z,3.90
2022-08-16T22:03:22.803Z,4.20
2022-08-16T22:06:11.711Z,3.67
2022-08-16T22:08:44.416Z,3.93
2022-08-16T22:11:18.802Z,4.40
2022-08-16T22:13:57.704Z,4.23
2022-08-16T22:16:26.677Z,4.10
2022-08-16T22:18:54.074Z,4.00
2022-08-16T22:21:21.526Z,3.73
2022-08-16T22:23:57.953Z,4.07
2022-08-16T22:26:30.341Z,3.70
2022-08-16T22:28:58.794Z,3.60
2022-08-16T22:31:26.179Z,3.70
2022-08-16T22:33:53.594Z,3.80
2022-08-16T22:36:20.971Z,3.63
2022-08-16T22:38:54.649Z,3.57
2022-08-16T22:41:25.219Z,3.90
2022-08-16T22:43:54.025Z,4.20
2022-08-16T22:46:21.537Z,3.93
2022-08-16T22:48:49.970Z,3.90
2022-08-16T22:51:17.401Z,3.87
2022-08-16T22:53:45.007Z,3.67
2022-08-16T22:56:12.449Z,3.63
2022-08-16T22:58:39.993Z,4.00
2022-08-16T23:01:09.643Z,3.83
2022-08-16T23:03:37.608Z,4.00
2022-08-16T23:06:06.074Z,3.57
2022-08-16T23:08:39.371Z,3.50
2022-08-16T23:11:07.910Z,3.13
2022-08-16T23:13:35.326Z,4.20
2022-08-16T23:16:10.551Z,3.67
2022-08-16T23:18:40.942Z,3.43
2022-08-16T23:21:09.809Z,3.97
2022-08-16T23:23:37.720Z,3.90
2022-08-16T23:26:36.327Z,3.70
2022-08-16T23:28:53.584Z,3.80
2022-08-16T23:31:21.019Z,4.20
2022-08-16T23:33:49.736Z,3.93
2022-08-16T23:36:17.299Z,3.97
2022-08-16T23:38:44.716Z,3.60
2022-08-16T23:41:12.607Z,3.93
2022-08-16T23:43:43.282Z,3.50
2022-08-16T23:46:13.471Z,4.03
2022-08-16T23:49:57.793Z,3.83
2022-08-16T23:51:29.790Z,4.00
2022-08-16T23:53:57.615Z,3.70
2022-08-16T23:56:25.657Z,3.60
2022-08-16T23:58:55.983Z,3.60
